Time;durP1;ratioP1;P1;durP2;ratioP2;P2;SDS_P1;SDS_P2;PMS_P1;PMS_P2;Temp;Humidity;BMP_temperature;BMP_pressure;BME280_temperature;BME280_humidity;BME280_pressure;Samples;Min_cycle;Max_cycle;Signal;HPM_P1;HPM_P2
2022/04/01 06:04:27;;;;;;;2.97;2.00;;;;;;;;;;10770031;27;20583;-84
2022/04/01 06:16:07;;;;;;;3.15;2.22;;;;;;;;;;10503421;28;20534;-84
2022/04/01 06:33:11;;;;;;;2.42;1.98;;;;;;;;;;10627119;28;20056;-85
2022/04/01 06:38:58;;;;;;;3.78;2.40;;;;;;;;;;10623091;28;20034;-85
2022/04/01 06:44:41;;;;;;;2.50;1.70;;;;;;;;;;10642975;27;20027;-85
2022/04/01 06:50:28;;;;;;;1.90;1.38;;;;;;;;;;10554000;28;20438;-83
2022/04/01 06:56:17;;;;;;;4.22;1.98;;;;;;;;;;10527591;28;20517;-85
2022/04/01 07:01:18;;;;;;;3.17;2.03;;;;;;;;;;10529753;28;20126;-84
2022/04/01 07:06:20;;;;;;;4.97;1.50;;;;;;;;;;10522874;28;20032;-81
2022/04/01 07:11:21;;;;;;;2.33;1.42;;;;;;;;;;10535530;28;20052;-81
2022/04/01 07:16:23;;;;;;;2.90;2.03;;;;;;;;;;10515696;28;20059;-84
2022/04/01 07:21:25;;;;;;;2.55;2.05;;;;;;;;;;10582405;28;20024;-84
2022/04/01 07:26:26;;;;;;;2.28;1.70;;;;;;;;;;10516513;22;20045;-82
2022/04/01 07:36:49;;;;;;;4.72;2.17;;;;;;;;;;10524207;28;20032;-80
2022/04/01 07:41:50;;;;;;;2.38;1.50;;;;;;;;;;10511738;28;20044;-81
2022/04/01 07:46:51;;;;;;;5.07;2.53;;;;;;;;;;10511128;28;20483;-82
2022/04/01 07:51:52;;;;;;;2.95;1.20;;;;;;;;;;10514428;28;20044;-80
2022/04/01 07:56:53;;;;;;;3.03;1.40;;;;;;;;;;10512741;28;20016;-79
2022/04/01 08:01:54;;;;;;;3.97;1.80;;;;;;;;;;10530056;28;20026;-79
2022/04/01 08:06:56;;;;;;;2.80;2.20;;;;;;;;;;10506813;28;20029;-80
2022/04/01 08:11:57;;;;;;;3.00;1.83;;;;;;;;;;10506114;28;20033;-79
2022/04/01 08:16:58;;;;;;;2.75;2.10;;;;;;;;;;10510682;28;20094;-80
2022/04/01 08:22:00;;;;;;;4.68;2.28;;;;;;;;;;10510251;28;20036;-80
2022/04/01 08:27:01;;;;;;;;;;;;;;;;;;10512182;28;20032;-80
2022/04/01 08:32:02;;;;;;;2.97;1.97;;;;;;;;;;10516448;28;19908;-81
2022/04/01 08:37:03;;;;;;;3.05;1.95;;;;;;;;;;10517610;28;20267;-81
2022/04/01 08:42:04;;;;;;;3.53;2.25;;;;;;;;;;10513684;28;20040;-80
2022/04/01 08:47:05;;;;;;;;;;;;;;;;;;10528611;28;20051;-81
2022/04/01 08:52:06;;;;;;;4.10;2.03;;;;;;;;;;10511515;28;19908;-82
2022/04/01 08:57:08;;;;;;;3.10;2.38;;;;;;;;;;10508750;28;20123;-81
2022/04/01 09:02:10;;;;;;;4.88;2.42;;;;;;;;;;10504025;28;20028;-81
2022/04/01 09:07:11;;;;;;;3.50;1.98;;;;;;;;;;10504077;28;20110;-81
2022/04/01 09:12:13;;;;;;;4.30;1.85;;;;;;;;;;10504134;28;20471;-80
2022/04/01 09:17:15;;;;;;;4.32;2.42;;;;;;;;;;10498054;28;20028;-81
2022/04/01 09:22:17;;;;;;;2.85;1.70;;;;;;;;;;10494874;28;20119;-80
2022/04/01 09:27:18;;;;;;;4.32;2.20;;;;;;;;;;10518670;28;20051;-79
2022/04/01 09:32:19;;;;;;;9.02;3.97;;;;;;;;;;10492406;28;20105;-80
2022/04/01 09:37:20;;;;;;;3.20;2.08;;;;;;;;;;10506461;28;20158;-79
2022/04/01 09:42:21;;;;;;;3.80;2.30;;;;;;;;;;10489572;28;20041;-78
2022/04/01 09:47:25;;;;;;;4.40;2.30;;;;;;;;;;10488800;28;20107;-80
2022/04/01 09:52:26;;;;;;;4.05;2.65;;;;;;;;;;10487903;28;20470;-78
2022/04/01 09:57:28;;;;;;;;;;;;;;;;;;10507794;28;20036;-80
2022/04/01 10:02:30;;;;;;;2.60;1.90;;;;;;;;;;10487837;28;19904;-78
2022/04/01 10:07:32;;;;;;;3.05;2.10;;;;;;;;;;10516105;28;20075;-79
2022/04/01 10:12:37;;;;;;;3.55;1.92;;;;;;;;;;10509951;28;20039;-78
2022/04/01 10:17:39;;;;;;;4.20;2.70;;;;;;;;;;10489820;28;20025;-78
2022/04/01 10:22:45;;;;;;;3.80;2.97;;;;;;;;;;10483182;28;20037;-79
2022/04/01 10:27:53;;;;;;;5.93;2.60;;;;;;;;;;10501450;28;20067;-79
2022/04/01 10:32:54;;;;;;;4.05;1.60;;;;;;;;;;10500810;28;20024;-77
2022/04/01 10:37:56;;;;;;;4.05;3.20;;;;;;;;;;10484507;28;20021;-79
2022/04/01 10:43:09;;;;;;;3.85;2.13;;;;;;;;;;10483365;28;20077;-77
2022/04/01 10:53:37;;;;;;;4.38;2.75;;;;;;;;;;10509060;28;20040;-77
2022/04/01 10:58:38;;;;;;;4.07;2.50;;;;;;;;;;10504962;28;20076;-77
2022/04/01 11:03:39;;;;;;;3.05;2.33;;;;;;;;;;10504540;28;20040;-77
2022/04/01 11:08:53;;;;;;;3.15;2.20;;;;;;;;;;10504416;28;20035;-77
2022/04/01 11:14:04;;;;;;;4.78;3.00;;;;;;;;;;10504346;28;20024;-78
2022/04/01 11:19:05;;;;;;;;;;;;;;;;;;10486758;28;20082;-77
2022/04/01 11:24:22;;;;;;;3.43;2.37;;;;;;;;;;10486726;28;19977;-77
2022/04/01 11:29:24;;;;;;;4.72;3.35;;;;;;;;;;10507759;28;20024;-78
2022/04/01 11:34:25;;;;;;;4.55;3.20;;;;;;;;;;10498476;28;20039;-78
2022/04/01 11:39:26;;;;;;;3.60;2.58;;;;;;;;;;10494344;28;20059;-79
2022/04/01 11:44:27;;;;;;;3.55;2.30;;;;;;;;;;10496164;28;20036;-78
2022/04/01 11:49:29;;;;;;;5.00;2.70;;;;;;;;;;10495118;28;20033;-80
2022/04/01 11:54:30;;;;;;;3.10;2.03;;;;;;;;;;10490420;28;20070;-79
2022/04/01 11:59:33;;;;;;;3.33;2.20;;;;;;;;;;10491068;28;20574;-79
2022/04/01 12:04:35;;;;;;;8.98;6.38;;;;;;;;;;10495856;28;20024;-79
2022/04/01 12:09:36;;;;;;;3.90;2.83;;;;;;;;;;10491940;28;20028;-79
2022/04/01 12:14:38;;;;;;;5.28;2.67;;;;;;;;;;10493294;28;20028;-83
2022/04/01 12:19:39;;;;;;;4.40;2.67;;;;;;;;;;10495425;28;20032;-80
2022/04/01 12:24:40;;;;;;;5.28;2.75;;;;;;;;;;10509177;28;20517;-80
2022/04/01 12:29:44;;;;;;;4.57;2.92;;;;;;;;;;10492878;28;20039;-81
2022/04/01 12:34:46;;;;;;;2.85;1.88;;;;;;;;;;10506826;28;20017;-80
2022/04/01 12:39:57;;;;;;;3.30;2.20;;;;;;;;;;10491128;28;20078;-80
2022/04/01 12:44:58;;;;;;;8.52;5.90;;;;;;;;;;10495446;28;20589;-81
2022/04/01 12:49:59;;;;;;;6.97;4.75;;;;;;;;;;10493677;28;20027;-81
2022/04/01 12:55:01;;;;;;;2.95;2.40;;;;;;;;;;10497585;28;20032;-81
2022/04/01 13:00:13;;;;;;;14.85;11.70;;;;;;;;;;10506322;28;20127;-81
2022/04/01 13:05:14;;;;;;;3.22;2.30;;;;;;;;;;10499193;28;20038;-80
2022/04/01 13:10:16;;;;;;;4.82;2.97;;;;;;;;;;10497878;28;20434;-81
2022/04/01 13:15:38;;;;;;;2.97;2.47;;;;;;;;;;10499260;28;20028;-82
2022/04/01 13:20:42;;;;;;;6.00;2.85;;;;;;;;;;10501293;28;20052;-81
2022/04/01 13:25:43;;;;;;;5.72;2.70;;;;;;;;;;10470598;22;20496;-82
2022/04/01 13:30:44;;;;;;;3.97;2.50;;;;;;;;;;10371386;28;20182;-82
2022/04/01 13:35:45;;;;;;;4.18;3.17;;;;;;;;;;10369171;28;20053;-83
2022/04/01 13:40:48;;;;;;;3.97;2.92;;;;;;;;;;10371957;28;20041;-84
2022/04/01 13:45:52;;;;;;;4.55;3.05;;;;;;;;;;10370099;28;20400;-82
2022/04/01 13:50:53;;;;;;;3.80;2.92;;;;;;;;;;10368915;28;20025;-81
2022/04/01 13:55:55;;;;;;;4.40;3.33;;;;;;;;;;10370738;28;20022;-81
2022/04/01 14:00:56;;;;;;;8.57;6.47;;;;;;;;;;10371279;28;20030;-81
2022/04/01 14:05:56;;;;;;;4.82;4.07;;;;;;;;;;10370986;28;20106;-84
2022/04/01 14:10:57;;;;;;;31.35;18.83;;;;;;;;;;10389664;28;20049;-80
2022/04/01 14:15:58;;;;;;;4.88;3.97;;;;;;;;;;10371856;28;20098;-81
2022/04/01 14:20:59;;;;;;;4.93;3.47;;;;;;;;;;10368622;28;20046;-81
2022/04/01 14:26:08;;;;;;;5.85;3.70;;;;;;;;;;10379110;28;20109;-81
2022/04/01 14:31:09;;;;;;;4.38;3.13;;;;;;;;;;10395233;28;20044;-82
2022/04/01 14:36:11;;;;;;;4.85;3.17;;;;;;;;;;10395101;28;20526;-82
2022/04/01 14:41:13;;;;;;;2.92;2.38;;;;;;;;;;10378839;28;20506;-79
2022/04/01 14:46:14;;;;;;;4.30;3.25;;;;;;;;;;10379987;28;20084;-79
2022/04/01 14:51:15;;;;;;;4.10;3.10;;;;;;;;;;10381248;28;20057;-79
2022/04/01 14:56:16;;;;;;;5.85;3.55;;;;;;;;;;10375534;28;20029;-82
2022/04/01 15:01:17;;;;;;;3.95;2.90;;;;;;;;;;10373478;28;20034;-79
2022/04/01 15:06:18;;;;;;;6.75;5.10;;;;;;;;;;10373036;28;20485;-79
2022/04/01 15:11:19;;;;;;;117.35;78.50;;;;;;;;;;10375730;28;20030;-81
2022/04/01 15:16:20;;;;;;;5.82;4.60;;;;;;;;;;10376060;28;20025;-81
2022/04/01 15:21:22;;;;;;;5.32;4.38;;;;;;;;;;10375959;28;20033;-81
2022/04/01 15:26:23;;;;;;;6.82;3.40;;;;;;;;;;10373937;28;20045;-81
2022/04/01 15:31:24;;;;;;;4.85;2.88;;;;;;;;;;10375415;28;20065;-80
2022/04/01 15:36:27;;;;;;;3.60;2.75;;;;;;;;;;10371999;28;20476;-81
2022/04/01 15:41:32;;;;;;;4.85;3.47;;;;;;;;;;10372902;28;20125;-82
2022/04/01 15:46:34;;;;;;;5.78;4.00;;;;;;;;;;10380407;28;20030;-81
2022/04/01 15:51:35;;;;;;;4.68;3.45;;;;;;;;;;10394201;28;20448;-81
2022/04/01 15:56:38;;;;;;;4.38;3.60;;;;;;;;;;10392704;28;20093;-81
2022/04/01 16:01:40;;;;;;;6.50;5.88;;;;;;;;;;10399262;28;20126;-81
2022/04/01 16:06:42;;;;;;;5.22;4.03;;;;;;;;;;10398193;28;20037;-82
2022/04/01 16:11:44;;;;;;;9.27;7.32;;;;;;;;;;10401341;28;20069;-80
2022/04/01 16:16:45;;;;;;;4.00;2.60;;;;;;;;;;10384740;28;20392;-80
2022/04/01 16:56:19;;;;;;;4.22;3.58;;;;;;;;;;10383957;28;20041;-85
